Time;durP1;ratioP1;P1;durP2;ratioP2;P2;SDS_P1;SDS_P2;PMS_P1;PMS_P2;Temp;Humidity;BMP_temperature;BMP_pressure;BME280_temperature;BME280_humidity;BME280_pressure;Samples;Min_cycle;Max_cycle;Signal;HPM_P1;HPM_P2
2022/11/17 00:00:12;;;;;;;38.22;23.02;;;8.50;99.90;;;;;;4994301;28;20058;-37
2022/11/17 00:02:40;;;;;;;40.70;22.77;;;8.50;99.90;;;;;;5013138;28;20580;-40
2022/11/17 00:05:08;;;;;;;37.25;21.58;;;8.50;99.90;;;;;;4998990;28;20054;-40
2022/11/17 00:07:35;;;;;;;40.20;22.25;;;8.50;99.90;;;;;;5013989;28;20058;-40
2022/11/17 00:10:01;;;;;;;36.22;21.38;;;8.50;99.90;;;;;;5013158;28;20140;-40
2022/11/17 00:15:13;;;;;;;40.33;21.80;;;8.60;99.90;;;;;;5029634;28;20057;-40
2022/11/17 00:17:41;;;;;;;35.85;21.88;;;8.60;99.90;;;;;;5018919;28;20046;-40
2022/11/17 00:23:09;;;;;;;37.67;21.67;;;8.60;99.90;;;;;;4985265;28;20046;-40
2022/11/17 00:25:36;;;;;;;33.45;20.42;;;8.60;99.90;;;;;;4974608;28;20086;-40
2022/11/17 00:28:02;;;;;;;32.53;20.55;;;8.60;99.90;;;;;;4998375;28;20164;-39
2022/11/17 00:35:59;;;;;;;33.15;19.98;;;8.60;99.90;;;;;;4999170;28;20046;-40
2022/11/17 00:38:26;;;;;;;34.95;20.35;;;8.60;99.90;;;;;;5012501;28;20126;-40
2022/11/17 00:40:53;;;;;;;32.65;20.15;;;8.60;99.90;;;;;;5010181;28;20074;-41
2022/11/17 00:43:19;;;;;;;36.70;20.98;;;8.70;99.90;;;;;;5011175;28;20049;-40
2022/11/17 00:45:46;;;;;;;35.22;19.77;;;8.70;99.90;;;;;;5009946;28;20108;-38
2022/11/17 00:48:15;;;;;;;29.60;19.80;;;8.70;99.90;;;;;;4998228;28;20455;-39
2022/11/17 00:50:42;;;;;;;31.30;19.27;;;8.70;99.90;;;;;;5000397;28;20141;-39
2022/11/17 00:53:09;;;;;;;28.40;19.65;;;8.70;99.90;;;;;;5011381;28;20101;-39
2022/11/17 00:55:35;;;;;;;30.33;18.35;;;8.70;99.90;;;;;;5011943;28;20130;-39
2022/11/17 00:58:02;;;;;;;32.03;18.60;;;8.70;99.90;;;;;;4993710;28;20559;-38
2022/11/17 01:00:29;;;;;;;30.67;18.08;;;8.70;99.90;;;;;;4991460;28;20057;-38
2022/11/17 01:02:56;;;;;;;31.02;18.58;;;8.70;99.90;;;;;;4994039;28;20054;-39
2022/11/17 01:05:24;;;;;;;27.15;17.77;;;8.70;99.90;;;;;;5029299;28;20057;-39
2022/11/17 01:07:52;;;;;;;30.17;18.10;;;8.70;99.90;;;;;;5021520;28;20082;-39
2022/11/17 01:10:19;;;;;;;24.98;16.10;;;8.70;99.90;;;;;;4994068;28;20085;-39
2022/11/17 01:12:46;;;;;;;28.08;17.60;;;8.70;99.90;;;;;;5006554;28;20082;-39
2022/11/17 01:15:12;;;;;;;25.42;16.38;;;8.70;99.90;;;;;;5008325;28;20062;-39
2022/11/17 01:17:39;;;;;;;22.92;14.95;;;8.70;99.90;;;;;;4980638;28;20042;-39
2022/11/17 01:20:08;;;;;;;27.30;17.35;;;8.70;99.90;;;;;;4993440;28;20490;-39
2022/11/17 01:22:36;;;;;;;29.75;16.52;;;8.70;99.90;;;;;;4995102;28;20140;-41
2022/11/17 01:25:03;;;;;;;25.92;16.15;;;8.70;99.90;;;;;;4995098;28;20397;-39
2022/11/17 01:27:30;;;;;;;28.45;16.42;;;8.70;99.90;;;;;;4978494;28;20125;-39
2022/11/17 01:29:57;;;;;;;26.58;17.40;;;8.70;99.90;;;;;;5010141;28;20497;-39
2022/11/17 01:32:24;;;;;;;21.55;14.90;;;8.70;99.90;;;;;;4999171;28;20483;-38
2022/11/17 01:34:51;;;;;;;23.98;16.05;;;8.70;99.90;;;;;;5010667;28;20457;-39
2022/11/17 01:37:20;;;;;;;22.63;15.48;;;8.70;99.90;;;;;;5011433;28;20465;-40
2022/11/17 01:39:48;;;;;;;23.33;15.13;;;8.70;99.90;;;;;;5000300;28;20109;-38
2022/11/17 01:42:16;;;;;;;25.98;15.85;;;8.70;99.90;;;;;;5008544;28;20049;-39
2022/11/17 01:45:04;;;;;;;23.65;16.05;;;8.70;99.90;;;;;;5020601;28;20046;-40
2022/11/17 01:47:42;;;;;;;26.73;16.65;;;8.70;99.90;;;;;;4993686;28;20105;-40
2022/11/17 01:50:14;;;;;;;24.27;13.98;;;8.70;99.90;;;;;;5007476;28;20442;-39
2022/11/17 01:52:40;;;;;;;;;;;8.70;99.90;;;;;;5015779;28;20532;-40
2022/11/17 01:55:10;;;;;;;25.20;15.35;;;8.70;99.90;;;;;;5013605;28;19985;-39
2022/11/17 01:57:39;;;;;;;22.10;14.65;;;8.70;99.90;;;;;;5010325;28;20112;-38
2022/11/17 02:00:07;;;;;;;22.88;14.43;;;8.70;99.90;;;;;;5018754;28;20125;-39
2022/11/17 02:02:34;;;;;;;20.05;14.52;;;8.70;99.90;;;;;;5008847;28;20140;-39
2022/11/17 02:05:04;;;;;;;22.65;14.32;;;8.70;99.90;;;;;;5010523;28;20469;-39
2022/11/17 02:07:31;;;;;;;24.15;15.52;;;8.80;99.90;;;;;;5009139;28;20448;-38
2022/11/17 02:09:58;;;;;;;23.08;15.15;;;8.80;99.90;;;;;;5003323;28;20081;-39
2022/11/17 02:12:26;;;;;;;25.08;15.70;;;8.70;99.90;;;;;;4987355;28;20964;-38
2022/11/17 02:14:54;;;;;;;24.08;15.25;;;8.70;99.90;;;;;;5013415;28;20050;-39
2022/11/17 02:17:21;;;;;;;26.73;13.95;;;8.80;99.90;;;;;;5010367;28;20143;-39
2022/11/17 02:19:50;;;;;;;22.30;13.95;;;8.70;99.90;;;;;;5005272;28;20465;-41
2022/11/17 02:22:32;;;;;;;29.38;15.60;;;8.70;99.90;;;;;;4992948;28;20081;-45
2022/11/17 02:25:18;;;;;;;21.75;14.43;;;8.70;99.90;;;;;;4995918;28;20046;-46
2022/11/17 02:27:57;;;;;;;22.92;15.02;;;8.70;99.90;;;;;;5015129;28;20089;-49
2022/11/17 02:30:23;;;;;;;24.05;15.10;;;8.70;99.90;;;;;;5011322;28;20072;-45
2022/11/17 02:32:58;;;;;;;23.50;15.07;;;8.70;99.90;;;;;;5012166;28;20077;-40
2022/11/17 02:35:27;;;;;;;25.85;16.20;;;8.70;99.90;;;;;;4993027;28;20530;-39
2022/11/17 02:37:59;;;;;;;25.67;15.52;;;8.60;99.90;;;;;;4994939;28;20136;-37
2022/11/17 02:40:29;;;;;;;26.13;16.27;;;8.60;99.90;;;;;;4995896;28;20508;-40
2022/11/17 02:45:47;;;;;;;25.63;16.73;;;8.60;99.90;;;;;;5013904;28;20137;-39
2022/11/17 02:48:16;;;;;;;24.33;16.77;;;8.60;99.90;;;;;;5011613;28;20516;-39
2022/11/17 02:50:42;;;;;;;23.38;16.48;;;8.60;99.90;;;;;;5014495;28;20089;-39
2022/11/17 02:53:09;;;;;;;26.35;16.48;;;8.50;99.90;;;;;;4993644;28;20053;-39
2022/11/17 02:55:36;;;;;;;26.52;14.68;;;8.60;99.90;;;;;;5011517;28;20127;-39
2022/11/17 02:58:10;;;;;;;27.90;16.50;;;8.60;99.90;;;;;;5009619;28;20050;-38
2022/11/17 03:00:37;;;;;;;25.63;16.52;;;8.60;99.90;;;;;;4996989;28;20054;-38
2022/11/17 03:03:10;;;;;;;23.90;15.13;;;8.60;99.90;;;;;;4984866;28;20509;-38
2022/11/17 03:05:40;;;;;;;27.55;16.35;;;8.50;99.90;;;;;;4985505;28;20086;-41
2022/11/17 03:08:13;;;;;;;29.65;16.85;;;8.50;99.90;;;;;;4998859;28;20045;-44
2022/11/17 03:10:46;;;;;;;29.33;16.10;;;8.50;99.90;;;;;;4996869;28;20049;-46
2022/11/17 03:13:17;;;;;;;21.35;14.80;;;8.50;99.90;;;;;;4998136;28;20549;-44
2022/11/17 03:15:47;;;;;;;26.73;16.25;;;8.50;99.90;;;;;;5013356;28;20041;-48
2022/11/17 03:18:17;;;;;;;27.33;15.90;;;8.50;99.90;;;;;;5012875;28;20107;-51
2022/11/17 03:20:48;;;;;;;25.15;15.48;;;8.50;99.90;;;;;;5012763;28;20096;-49
2022/11/17 03:23:17;;;;;;;23.42;15.55;;;8.50;99.90;;;;;;5001028;28;20458;-49
2022/11/17 03:25:45;;;;;;;25.95;15.50;;;8.50;99.90;;;;;;5012730;28;20112;-50
2022/11/17 03:28:13;;;;;;;24.80;16.08;;;8.50;99.90;;;;;;5011964;28;20050;-48
2022/11/17 03:30:41;;;;;;;23.33;15.25;;;8.40;99.90;;;;;;5007201;28;20077;-44
2022/11/17 03:33:09;;;;;;;22.13;14.63;;;8.40;99.90;;;;;;4995828;28;20081;-43
2022/11/17 03:35:38;;;;;;;22.95;14.88;;;8.50;99.90;;;;;;4998162;28;20049;-42
2022/11/17 03:38:09;;;;;;;21.30;14.88;;;8.50;99.90;;;;;;5018121;28;20072;-43
2022/11/17 03:40:35;;;;;;;22.30;13.98;;;8.40;99.90;;;;;;5020236;28;20128;-46
2022/11/17 03:43:05;;;;;;;20.20;13.93;;;8.40;99.90;;;;;;5003728;28;20133;-48
2022/11/17 03:45:34;;;;;;;20.08;14.32;;;8.40;99.90;;;;;;4997235;28;20462;-50
2022/11/17 03:48:03;;;;;;;22.55;13.52;;;8.40;99.90;;;;;;4988418;28;20077;-49
2022/11/17 03:50:32;;;;;;;20.27;13.63;;;8.40;99.90;;;;;;5012068;28;20133;-48
2022/11/17 03:52:59;;;;;;;22.40;14.85;;;8.40;99.90;;;;;;5011628;28;20081;-48
2022/11/17 03:55:27;;;;;;;18.25;13.57;;;8.40;99.90;;;;;;5002125;28;20454;-47
2022/11/17 03:57:55;;;;;;;18.00;12.02;;;8.40;99.90;;;;;;4990799;28;20097;-46
2022/11/17 04:00:22;;;;;;;18.35;13.52;;;8.40;99.90;;;;;;5004520;28;20050;-48
2022/11/17 04:02:54;;;;;;;20.85;12.65;;;8.40;99.90;;;;;;5016571;28;20116;-49
2022/11/17 04:05:21;;;;;;;19.60;12.85;;;8.30;99.90;;;;;;5013277;28;20058;-49
2022/11/17 04:07:48;;;;;;;21.38;12.90;;;8.40;99.90;;;;;;5016252;28;20052;-41
2022/11/17 04:10:16;;;;;;;21.90;13.13;;;8.30;99.90;;;;;;5000197;28;20050;-44
2022/11/17 04:18:12;;;;;;;18.75;11.90;;;8.40;99.90;;;;;;5009952;28;20057;-39
2022/11/17 04:20:39;;;;;;;18.33;12.02;;;8.30;99.90;;;;;;4993492;28;20050;-38
2022/11/17 04:23:07;;;;;;;14.77;10.35;;;8.30;99.90;;;;;;5011086;28;20086;-43
2022/11/17 04:28:37;;;;;;;16.90;11.30;;;8.30;99.90;;;;;;5010928;28;20046;-41
2022/11/17 04:31:05;;;;;;;17.67;12.07;;;8.30;99.90;;;;;;5008710;28;20049;-43
2022/11/17 04:33:33;;;;;;;17.60;10.85;;;8.30;99.90;;;;;;5021070;28;20096;-44
2022/11/17 04:36:00;;;;;;;16.10;11.57;;;8.30;99.90;;;;;;5003181;28;20445;-40
2022/11/17 04:38:27;;;;;;;16.15;10.93;;;8.30;99.90;;;;;;5010527;28;20046;-45
2022/11/17 04:43:46;;;;;;;15.20;10.85;;;8.20;99.90;;;;;;4960109;28;20046;-44
2022/11/17 04:46:13;;;;;;;17.40;12.52;;;8.20;99.90;;;;;;5010899;28;20050;-43
2022/11/17 04:48:41;;;;;;;15.50;11.52;;;8.30;99.90;;;;;;4995184;28;20115;-42
2022/11/17 04:51:08;;;;;;;16.48;12.40;;;8.20;99.90;;;;;;5011046;28;20466;-43
2022/11/17 04:53:35;;;;;;;15.18;10.82;;;8.30;99.90;;;;;;4992535;28;20050;-42
2022/11/17 04:56:02;;;;;;;17.25;11.50;;;8.20;99.90;;;;;;5008480;28;20125;-43
2022/11/17 04:58:29;;;;;;;16.67;10.77;;;8.20;99.90;;;;;;4993260;28;20136;-45
2022/11/17 05:01:11;;;;;;;13.43;9.55;;;8.20;99.90;;;;;;5003465;28;20105;-41
2022/11/17 05:03:39;;;;;;;;;;;8.20;99.90;;;;;;4970527;28;20051;-43
2022/11/17 05:06:07;;;;;;;15.07;10.70;;;8.20;99.90;;;;;;4979287;28;20042;-43
2022/11/17 05:08:35;;;;;;;13.88;10.35;;;8.20;99.90;;;;;;4974781;28;20058;-42
2022/11/17 05:13:47;;;;;;;12.18;10.00;;;8.20;99.90;;;;;;5011513;28;20050;-44
2022/11/17 05:18:58;;;;;;;14.07;9.10;;;8.10;99.90;;;;;;4986321;28;20054;-44
2022/11/17 05:21:26;;;;;;;15.25;10.35;;;8.10;99.90;;;;;;4976134;28;20140;-45
2022/11/17 05:23:52;;;;;;;10.82;8.80;;;8.10;99.90;;;;;;4989712;28;20149;-42
2022/11/17 05:26:19;;;;;;;11.25;8.60;;;8.10;99.90;;;;;;4985036;28;20134;-45
2022/11/17 05:28:46;;;;;;;11.32;9.45;;;8.00;99.90;;;;;;4994487;28;20054;-44
2022/11/17 05:31:13;;;;;;;11.43;9.65;;;8.00;99.90;;;;;;4993685;28;20046;-44
2022/11/17 05:33:40;;;;;;;12.25;9.88;;;8.00;99.90;;;;;;4991597;28;20058;-44
2022/11/17 05:36:07;;;;;;;10.43;8.10;;;8.00;99.90;;;;;;4981441;28;20554;-45
2022/11/17 05:38:35;;;;;;;11.98;9.38;;;8.00;99.90;;;;;;4982624;28;20082;-40
2022/11/17 05:41:02;;;;;;;14.00;8.00;;;7.90;99.90;;;;;;5001869;28;20545;-41
2022/11/17 05:43:28;;;;;;;11.50;9.40;;;7.90;99.90;;;;;;4973389;28;20186;-44
2022/11/17 05:45:55;;;;;;;11.32;8.52;;;7.90;99.90;;;;;;4993844;28;20105;-43
2022/11/17 05:48:22;;;;;;;12.13;9.40;;;7.90;99.90;;;;;;4996695;28;20402;-44
2022/11/17 05:50:51;;;;;;;13.30;9.50;;;7.90;99.90;;;;;;4995010;28;20074;-43
2022/11/17 05:53:18;;;;;;;14.55;9.45;;;7.80;99.90;;;;;;5001610;28;20494;-43
2022/11/17 05:55:46;;;;;;;13.50;9.80;;;7.80;99.90;;;;;;4992832;28;20113;-41
2022/11/17 05:58:15;;;;;;;13.27;10.35;;;7.80;99.90;;;;;;4977367;28;20082;-43
2022/11/17 06:00:42;;;;;;;9.70;7.70;;;7.80;99.90;;;;;;4995050;28;20055;-42
2022/11/17 06:03:12;;;;;;;12.40;9.70;;;7.80;99.90;;;;;;5015454;28;20112;-41
2022/11/17 06:05:39;;;;;;;12.13;9.57;;;7.70;99.90;;;;;;4992628;28;20128;-42
2022/11/17 06:08:06;;;;;;;11.60;9.02;;;7.70;99.90;;;;;;4989055;28;20588;-40
2022/11/17 06:10:33;;;;;;;12.65;10.00;;;7.70;99.90;;;;;;5012370;28;20081;-43
2022/11/17 06:13:01;;;;;;;11.65;9.40;;;7.70;99.90;;;;;;5025275;28;20049;-42
2022/11/17 06:15:28;;;;;;;13.80;10.10;;;7.70;99.90;;;;;;5002909;28;20576;-44
2022/11/17 06:17:56;;;;;;;14.23;9.07;;;7.70;99.90;;;;;;5019646;28;20099;-43
2022/11/17 06:20:24;;;;;;;11.55;8.80;;;7.60;99.90;;;;;;5014069;28;20045;-42
2022/11/17 06:22:51;;;;;;;11.48;9.15;;;7.60;99.90;;;;;;5015545;28;20441;-44
2022/11/17 06:25:18;;;;;;;10.00;8.77;;;7.60;99.90;;;;;;4996897;28;20466;-40
2022/11/17 06:27:48;;;;;;;12.45;9.23;;;7.60;99.90;;;;;;4993666;28;20545;-38
2022/11/17 06:30:16;;;;;;;11.77;9.52;;;7.50;99.90;;;;;;5001446;28;20128;-41
2022/11/17 06:32:43;;;;;;;9.48;8.10;;;7.50;99.90;;;;;;4996560;28;20101;-42
2022/11/17 06:35:10;;;;;;;11.52;8.52;;;7.60;99.90;;;;;;5013247;28;20058;-41
2022/11/17 06:37:37;;;;;;;10.20;7.97;;;7.50;99.90;;;;;;5008682;28;20116;-41
2022/11/17 06:40:04;;;;;;;10.93;8.68;;;7.50;99.90;;;;;;5002129;28;20117;-42
2022/11/17 06:45:27;;;;;;;10.20;8.07;;;7.50;99.90;;;;;;4953420;29;20125;-45
2022/11/17 06:47:54;;;;;;;8.82;7.93;;;7.40;99.90;;;;;;4998196;28;20054;-40
2022/11/17 06:50:21;;;;;;;12.48;8.20;;;7.50;99.90;;;;;;5009719;28;20077;-44
2022/11/17 06:52:48;;;;;;;8.70;7.50;;;7.40;99.90;;;;;;4996763;28;20050;-43
2022/11/17 06:55:15;;;;;;;10.82;8.98;;;7.50;99.90;;;;;;5014068;28;20117;-42
2022/11/17 06:57:41;;;;;;;8.90;7.88;;;7.40;99.90;;;;;;5014230;28;20542;-44
2022/11/17 07:00:09;;;;;;;10.77;8.20;;;7.40;99.90;;;;;;5002947;28;20119;-41
2022/11/17 07:02:37;;;;;;;10.00;7.47;;;7.40;99.90;;;;;;5000365;28;20081;-41
2022/11/17 07:05:05;;;;;;;10.98;8.75;;;7.40;99.90;;;;;;5022308;28;20140;-43
2022/11/17 07:07:32;;;;;;;9.15;8.07;;;7.40;99.90;;;;;;5000963;28;20129;-40
2022/11/17 07:09:58;;;;;;;10.18;8.27;;;7.40;99.90;;;;;;5016628;28;20104;-43
2022/11/17 07:12:25;;;;;;;9.20;7.97;;;7.40;99.90;;;;;;5032903;28;20133;-41
2022/11/17 07:14:52;;;;;;;9.23;7.30;;;7.40;99.90;;;;;;5016385;28;20045;-43
2022/11/17 07:17:19;;;;;;;9.45;8.45;;;7.40;99.90;;;;;;5033420;28;20049;-40
2022/11/17 07:19:47;;;;;;;10.32;7.50;;;7.40;99.90;;;;;;5013526;28;20108;-46
2022/11/17 07:22:14;;;;;;;9.45;8.05;;;7.40;99.90;;;;;;5033757;28;20076;-42
2022/11/17 07:24:41;;;;;;;10.18;8.38;;;7.40;99.90;;;;;;5030332;28;20049;-44
2022/11/17 07:27:07;;;;;;;10.52;7.68;;;7.40;99.90;;;;;;5033299;28;20049;-43
2022/11/17 07:29:34;;;;;;;8.18;6.22;;;7.40;99.90;;;;;;5003281;28;20085;-38
2022/11/17 07:32:01;;;;;;;8.40;7.35;;;7.50;99.90;;;;;;5021110;28;20078;-41
2022/11/17 07:34:28;;;;;;;10.55;8.13;;;7.40;99.90;;;;;;4995452;28;20050;-42
2022/11/17 07:36:56;;;;;;;10.00;7.22;;;7.40;99.90;;;;;;5012259;28;20113;-39
2022/11/17 07:39:23;;;;;;;11.57;7.75;;;7.40;99.90;;;;;;5012300;28;20482;-41
2022/11/17 07:41:50;;;;;;;9.75;7.22;;;7.50;99.90;;;;;;5032579;28;20136;-41
2022/11/17 07:44:16;;;;;;;8.23;6.88;;;7.50;99.90;;;;;;5027535;28;20091;-40
2022/11/17 07:46:43;;;;;;;9.35;7.65;;;7.50;99.90;;;;;;5015601;28;20108;-40
2022/11/17 07:49:10;;;;;;;9.57;7.32;;;7.50;99.90;;;;;;5019737;28;20081;-39
2022/11/17 07:51:37;;;;;;;7.47;6.65;;;7.50;99.90;;;;;;4994052;28;20090;-42
2022/11/17 07:54:05;;;;;;;11.65;6.55;;;7.50;99.90;;;;;;4977186;28;20077;-42
2022/11/17 07:56:32;;;;;;;9.13;7.70;;;7.50;99.90;;;;;;4993735;28;20128;-40
2022/11/17 07:58:59;;;;;;;8.73;7.20;;;7.50;99.90;;;;;;5010825;28;20105;-43
2022/11/17 08:01:26;;;;;;;8.50;7.18;;;7.50;99.90;;;;;;5011898;28;21319;-45
2022/11/17 08:03:53;;;;;;;8.65;7.07;;;7.40;99.90;;;;;;5029075;28;20053;-44
2022/11/17 08:06:21;;;;;;;10.30;7.68;;;7.50;99.90;;;;;;5015225;28;20053;-40
2022/11/17 08:08:48;;;;;;;10.70;7.32;;;7.50;99.90;;;;;;5007099;28;20050;-39
2022/11/17 08:11:16;;;;;;;8.98;7.43;;;7.50;99.90;;;;;;4996820;28;20061;-40
2022/11/17 08:13:43;;;;;;;9.45;7.22;;;7.40;99.90;;;;;;5011012;28;20049;-39
2022/11/17 08:16:11;;;;;;;9.07;6.75;;;7.50;99.90;;;;;;5032553;28;20077;-42
2022/11/17 08:18:38;;;;;;;9.13;7.70;;;7.50;99.90;;;;;;5001642;28;20093;-41
2022/11/17 08:21:05;;;;;;;8.98;7.40;;;7.50;99.90;;;;;;4979013;28;20095;-40
2022/11/17 08:23:32;;;;;;;9.93;7.75;;;7.40;99.90;;;;;;4999768;28;20632;-45
2022/11/17 08:25:59;;;;;;;10.18;7.95;;;7.50;99.90;;;;;;5012606;28;20489;-45
2022/11/17 08:28:27;;;;;;;10.88;7.72;;;7.40;99.90;;;;;;4995393;28;20050;-45
2022/11/17 08:30:54;;;;;;;10.35;7.88;;;7.50;99.90;;;;;;4994980;28;20120;-42
2022/11/17 08:33:21;;;;;;;10.25;7.82;;;7.50;99.90;;;;;;5007037;28;20477;-44
2022/11/17 08:35:48;;;;;;;10.32;8.20;;;7.50;99.90;;;;;;5014633;28;20069;-41
2022/11/17 08:38:15;;;;;;;9.85;8.35;;;7.50;99.90;;;;;;5032580;28;20095;-41
2022/11/17 08:40:44;;;;;;;11.18;8.32;;;7.50;99.90;;;;;;5032227;28;20548;-42
2022/11/17 08:43:11;;;;;;;12.05;8.90;;;7.50;99.90;;;;;;5032472;28;20088;-43
2022/11/17 08:45:40;;;;;;;10.13;8.27;;;7.50;99.90;;;;;;5032168;28;20045;-42
2022/11/17 08:48:07;;;;;;;8.55;7.38;;;7.50;99.90;;;;;;5029746;28;20115;-43
2022/11/17 08:50:34;;;;;;;9.82;8.40;;;7.50;99.90;;;;;;5013246;28;20045;-44
2022/11/17 08:53:00;;;;;;;11.82;8.20;;;7.50;99.90;;;;;;5015989;28;20077;-44
2022/11/17 08:55:27;;;;;;;9.20;7.97;;;7.50;99.90;;;;;;5016865;28;20100;-46
2022/11/17 08:57:54;;;;;;;11.88;8.48;;;7.50;99.90;;;;;;4999384;28;20133;-46
2022/11/17 09:00:21;;;;;;;8.98;7.57;;;7.50;99.90;;;;;;5016406;28;20085;-44
2022/11/17 09:02:49;;;;;;;9.57;7.82;;;7.50;99.90;;;;;;4999074;28;20135;-44
2022/11/17 09:05:16;;;;;;;10.90;8.93;;;7.50;99.90;;;;;;4999561;28;20124;-43
2022/11/17 09:07:43;;;;;;;10.65;7.78;;;7.50;99.90;;;;;;5016596;28;20089;-43
2022/11/17 09:10:10;;;;;;;8.82;7.93;;;7.50;99.90;;;;;;5016642;28;20132;-43
2022/11/17 09:12:37;;;;;;;10.10;7.80;;;7.50;99.90;;;;;;5016541;28;20054;-47
2022/11/17 09:15:04;;;;;;;8.45;7.38;;;7.60;99.90;;;;;;5036213;28;20057;-44
2022/11/17 09:17:31;;;;;;;9.77;7.60;;;7.60;99.90;;;;;;5020154;28;20053;-41
2022/11/17 09:19:59;;;;;;;9.88;7.72;;;7.60;99.90;;;;;;5016499;28;20461;-43
2022/11/17 09:22:26;;;;;;;10.18;7.93;;;7.50;99.90;;;;;;5016442;28;20101;-46
2022/11/17 09:24:52;;;;;;;9.38;7.78;;;7.60;99.90;;;;;;5016151;28;20081;-43
2022/11/17 09:27:19;;;;;;;10.20;7.97;;;7.50;99.90;;;;;;5015272;28;20101;-43
2022/11/17 09:29:46;;;;;;;8.48;7.57;;;7.60;99.90;;;;;;5015929;28;20093;-44
2022/11/17 09:32:15;;;;;;;8.35;6.35;;;7.60;99.90;;;;;;5016408;28;20141;-41
2022/11/17 09:34:42;;;;;;;7.35;6.40;;;7.60;99.90;;;;;;5016029;28;20437;-37
2022/11/17 09:37:10;;;;;;;9.80;7.28;;;7.50;99.90;;;;;;5016244;28;20057;-43
2022/11/17 09:39:37;;;;;;;8.80;7.13;;;7.60;99.90;;;;;;4998650;28;20140;-43
2022/11/17 09:42:04;;;;;;;7.88;7.07;;;7.60;99.90;;;;;;5015936;28;20089;-47
2022/11/17 09:44:38;;;;;;;10.00;7.57;;;7.60;99.90;;;;;;5015779;28;20442;-42
2022/11/17 09:47:10;;;;;;;8.77;6.88;;;7.60;99.90;;;;;;4997844;28;20456;-44
2022/11/17 09:49:42;;;;;;;6.55;5.80;;;7.60;99.90;;;;;;4998129;28;20081;-47
2022/11/17 09:52:16;;;;;;;8.10;6.57;;;7.60;99.90;;;;;;5015765;28;20410;-45
2022/11/17 09:54:45;;;;;;;9.90;7.75;;;7.60;99.90;;;;;;4998526;28;20450;-43
2022/11/17 09:57:18;;;;;;;6.88;5.90;;;7.60;99.90;;;;;;5015535;28;20442;-43
2022/11/17 09:59:45;;;;;;;8.18;6.65;;;7.70;99.90;;;;;;4998304;28;20098;-43
2022/11/17 10:02:12;;;;;;;6.53;5.75;;;7.60;99.90;;;;;;5026087;28;20111;-42
2022/11/17 10:04:39;;;;;;;7.75;6.32;;;7.70;99.90;;;;;;5035229;28;20421;-43
2022/11/17 10:07:05;;;;;;;8.60;6.03;;;7.80;99.90;;;;;;5017916;28;20123;-44
2022/11/17 10:09:36;;;;;;;10.45;6.32;;;7.70;99.90;;;;;;5034952;28;20485;-42
2022/11/17 10:12:12;;;;;;;9.27;6.93;;;7.70;99.90;;;;;;5035561;28;20133;-42
2022/11/17 10:14:40;;;;;;;8.65;6.72;;;7.70;99.90;;;;;;5035181;28;20132;-43
2022/11/17 10:17:06;;;;;;;7.68;6.63;;;7.70;99.90;;;;;;5016754;28;20125;-43
2022/11/17 10:19:34;;;;;;;8.20;6.82;;;7.70;99.90;;;;;;4995769;28;20077;-42
2022/11/17 10:22:15;;;;;;;7.70;6.28;;;7.70;99.90;;;;;;5015077;28;20050;-43
2022/11/17 10:24:45;;;;;;;8.27;6.63;;;7.70;99.90;;;;;;4997782;28;20089;-44
2022/11/17 10:27:19;;;;;;;7.90;6.43;;;7.80;99.90;;;;;;4997738;28;20056;-43
2022/11/17 10:29:56;;;;;;;8.25;6.78;;;7.80;99.90;;;;;;5015035;28;20085;-45
2022/11/17 10:32:23;;;;;;;7.75;6.25;;;7.80;99.90;;;;;;5015156;28;20088;-46
2022/11/17 10:34:50;;;;;;;7.78;6.32;;;7.80;99.90;;;;;;5014873;28;20446;-42
2022/11/17 10:37:25;;;;;;;7.05;6.18;;;7.80;99.90;;;;;;5014998;28;20061;-43
2022/11/17 10:40:12;;;;;;;9.75;6.85;;;7.80;99.90;;;;;;4997531;28;20053;-43
2022/11/17 10:42:39;;;;;;;7.93;6.70;;;7.90;99.90;;;;;;5014920;28;20081;-41
2022/11/17 10:45:10;;;;;;;9.95;6.65;;;7.90;99.90;;;;;;5014781;28;20058;-43
2022/11/17 10:47:38;;;;;;;8.18;7.15;;;7.90;99.90;;;;;;4980660;28;20137;-44
2022/11/17 10:50:11;;;;;;;7.32;6.25;;;8.00;99.90;;;;;;4977643;28;20060;-44
2022/11/17 10:52:37;;;;;;;9.02;7.03;;;8.00;99.90;;;;;;4995269;28;20085;-44
2022/11/17 10:55:24;;;;;;;7.80;6.05;;;8.00;99.90;;;;;;4995120;28;20133;-45
2022/11/17 10:57:53;;;;;;;7.05;6.35;;;8.10;99.90;;;;;;4994829;28;20051;-42
2022/11/17 11:00:51;;;;;;;7.47;6.13;;;8.10;99.90;;;;;;4995101;28;20136;-43
2022/11/17 11:03:19;;;;;;;8.85;6.00;;;8.20;99.90;;;;;;4975422;28;20508;-45
2022/11/17 11:06:05;;;;;;;4.95;4.50;;;8.20;99.90;;;;;;4975517;28;20093;-45
2022/11/17 11:08:45;;;;;;;6.05;5.13;;;8.20;99.90;;;;;;4975265;28;20086;-45
2022/11/17 11:11:18;;;;;;;6.07;5.13;;;8.20;99.90;;;;;;4975482;28;20487;-43
2022/11/17 11:13:48;;;;;;;5.28;4.75;;;8.20;99.90;;;;;;4974640;28;20302;-43
2022/11/17 11:16:15;;;;;;;5.97;4.35;;;8.20;99.90;;;;;;4983720;28;20138;-45
2022/11/17 11:18:42;;;;;;;7.13;5.75;;;8.20;99.90;;;;;;4994464;28;20081;-47
2022/11/17 11:21:12;;;;;;;7.63;5.35;;;8.20;99.90;;;;;;4994461;28;20505;-45
2022/11/17 11:23:46;;;;;;;7.03;5.10;;;8.20;99.90;;;;;;4994695;28;20046;-40
2022/11/17 11:26:22;;;;;;;5.50;4.72;;;8.30;99.90;;;;;;4994276;28;20046;-44
2022/11/17 11:28:58;;;;;;;5.80;4.55;;;8.30;99.90;;;;;;4994459;28;20054;-46
2022/11/17 11:31:28;;;;;;;5.25;4.75;;;8.30;99.90;;;;;;4994326;28;20078;-44
2022/11/17 11:34:00;;;;;;;5.78;4.97;;;8.30;99.90;;;;;;4994470;28;20477;-40
2022/11/17 11:36:31;;;;;;;6.45;4.80;;;8.30;99.90;;;;;;4994194;28;20054;-40
2022/11/17 11:38:59;;;;;;;6.55;4.97;;;8.40;99.90;;;;;;4976899;28;20042;-40
2022/11/17 11:41:49;;;;;;;6.43;4.80;;;8.40;99.90;;;;;;4994177;28;20406;-43
2022/11/17 11:44:31;;;;;;;6.32;4.75;;;8.40;99.90;;;;;;4994092;28;20494;-45
2022/11/17 11:47:01;;;;;;;7.03;5.03;;;8.40;99.90;;;;;;4979975;28;20466;-42
2022/11/17 11:49:32;;;;;;;7.25;4.45;;;8.40;99.90;;;;;;4957308;28;20050;-45
2022/11/17 11:51:59;;;;;;;8.65;4.80;;;8.50;99.90;;;;;;4957473;28;20146;-45
2022/11/17 11:54:31;;;;;;;7.70;4.85;;;8.40;99.90;;;;;;4974601;28;20471;-44
2022/11/17 11:56:59;;;;;;;9.40;5.40;;;8.50;99.90;;;;;;4974457;28;20047;-41
2022/11/17 11:59:33;;;;;;;5.60;4.72;;;8.50;99.90;;;;;;4986798;28;20084;-40
2022/11/17 12:02:23;;;;;;;7.65;5.25;;;8.60;99.90;;;;;;5011960;28;20501;-40
2022/11/17 12:04:52;;;;;;;6.80;5.65;;;8.60;99.90;;;;;;5032963;28;20486;-41
2022/11/17 12:07:21;;;;;;;6.70;5.65;;;8.60;99.90;;;;;;5033180;28;20049;-40
2022/11/17 12:09:54;;;;;;;7.68;5.30;;;8.60;99.90;;;;;;5015680;28;20540;-42
2022/11/17 12:12:27;;;;;;;10.85;8.13;;;8.60;99.90;;;;;;5033374;28;20077;-40
2022/11/17 12:15:29;;;;;;;8.15;6.13;;;8.70;99.90;;;;;;5033085;28;20432;-43
2022/11/17 12:17:59;;;;;;;17.73;11.73;;;8.70;99.90;;;;;;4962139;28;20082;-43
2022/11/17 12:20:54;;;;;;;8.45;6.95;;;8.70;99.90;;;;;;4992726;28;20079;-43
2022/11/17 12:23:26;;;;;;;11.02;8.90;;;8.70;99.90;;;;;;4993459;28;20054;-42
2022/11/17 12:25:53;;;;;;;15.98;11.32;;;8.80;99.90;;;;;;4993306;28;20061;-44
2022/11/17 12:28:30;;;;;;;12.98;7.38;;;8.80;99.90;;;;;;4993933;28;20061;-44
2022/11/17 12:30:58;;;;;;;10.85;6.88;;;8.90;99.90;;;;;;5012972;28;20108;-44
2022/11/17 12:34:07;;;;;;;9.77;7.80;;;8.90;99.90;;;;;;4995697;28;20056;-44
2022/11/17 12:36:34;;;;;;;14.70;10.30;;;9.00;99.90;;;;;;5012951;28;20405;-45
2022/11/17 12:39:01;;;;;;;13.35;8.35;;;9.00;99.90;;;;;;5013025;28;20133;-41
2022/11/17 12:42:06;;;;;;;13.20;7.70;;;9.10;99.90;;;;;;5013040;28;20085;-42
2022/11/17 12:45:11;;;;;;;13.43;7.65;;;9.10;99.90;;;;;;4995429;28;20054;-45
2022/11/17 12:47:38;;;;;;;9.57;7.00;;;9.20;99.90;;;;;;5013043;28;20054;-43
2022/11/17 12:50:18;;;;;;;12.73;8.13;;;9.20;99.90;;;;;;5012730;28;20092;-42
2022/11/17 12:52:50;;;;;;;11.02;7.07;;;9.30;99.90;;;;;;5012880;28;20085;-40
2022/11/17 12:55:17;;;;;;;10.55;6.70;;;9.40;99.90;;;;;;5012771;28;20104;-42
2022/11/17 12:57:45;;;;;;;10.13;6.40;;;9.40;99.90;;;;;;4990364;28;20058;-41
2022/11/17 13:00:15;;;;;;;14.38;6.90;;;9.50;99.90;;;;;;4993406;28;20046;-43
2022/11/17 13:02:58;;;;;;;11.77;6.03;;;9.50;99.90;;;;;;5026480;28;20405;-43
2022/11/17 13:05:25;;;;;;;8.50;5.35;;;9.50;99.90;;;;;;5003364;28;20545;-45
2022/11/17 13:08:08;;;;;;;8.88;6.03;;;9.60;99.90;;;;;;4994946;28;20137;-44
2022/11/17 13:10:34;;;;;;;10.35;5.50;;;9.70;99.90;;;;;;4993317;28;20082;-43
2022/11/17 13:13:11;;;;;;;7.82;4.85;;;9.60;99.90;;;;;;4993158;28;20089;-46
2022/11/17 13:15:40;;;;;;;29.17;19.45;;;9.70;99.90;;;;;;4992990;28;20046;-44
2022/11/17 13:18:16;;;;;;;9.13;4.10;;;9.70;99.90;;;;;;4975805;28;20058;-44
2022/11/17 13:20:46;;;;;;;9.77;3.40;;;9.80;99.90;;;;;;4975519;28;20053;-43
2022/11/17 13:23:14;;;;;;;9.70;3.55;;;9.80;99.90;;;;;;4993257;28;20450;-43
2022/11/17 13:25:41;;;;;;;9.18;3.42;;;9.90;99.90;;;;;;4975891;28;20578;-41
2022/11/17 13:28:26;;;;;;;12.10;4.25;;;9.90;99.90;;;;;;5000581;28;20460;-42
2022/11/17 13:30:54;;;;;;;9.60;3.10;;;9.90;99.90;;;;;;5012363;28;20478;-43
2022/11/17 13:33:22;;;;;;;7.90;3.13;;;9.90;99.90;;;;;;5012250;28;20050;-45